Time;durP1;ratioP1;P1;durP2;ratioP2;P2;SDS_P1;SDS_P2;PMS_P1;PMS_P2;Temp;Humidity;BMP_temperature;BMP_pressure;BME280_temperature;BME280_humidity;BME280_pressure;Samples;Min_cycle;Max_cycle;Signal;HPM_P1;HPM_P2
2021/03/09 00:01:38;;;;;;;0.77;0.77;;;;;;;-1.88;73.61;101711.38;5076192;28;20441;-65
2021/03/09 00:04:04;;;;;;;0.40;0.30;;;;;;;-1.94;74.05;101714.81;5076226;28;20480;-65
2021/03/09 00:06:30;;;;;;;0.40;0.30;;;;;;;-1.87;73.25;101716.50;5075968;28;20437;-65
2021/03/09 00:08:56;;;;;;;0.40;0.40;;;;;;;-1.80;73.00;101712.06;5076113;28;20511;-65
2021/03/09 00:11:23;;;;;;;0.40;0.30;;;;;;;-1.82;73.40;101708.78;5076085;28;20810;-65
2021/03/09 00:13:49;;;;;;;1.43;1.03;;;;;;;-1.95;73.94;101703.34;5076116;28;20441;-65
2021/03/09 00:16:14;;;;;;;0.40;0.30;;;;;;;-1.95;74.53;101707.84;5076187;28;20498;-65
2021/03/09 00:18:40;;;;;;;0.40;0.40;;;;;;;-1.97;74.23;101700.06;5075879;28;20464;-65
2021/03/09 00:21:06;;;;;;;0.40;0.30;;;;;;;-1.91;74.05;101698.50;5076026;28;20854;-65
2021/03/09 00:23:32;;;;;;;0.40;0.30;;;;;;;-1.96;74.55;101704.38;5076003;28;21115;-65
2021/03/09 00:25:58;;;;;;;0.40;0.30;;;;;;;-2.00;74.65;101703.09;5075933;28;20856;-65
2021/03/09 00:28:25;;;;;;;0.40;0.30;;;;;;;-2.10;74.44;101699.97;5075832;28;20520;-66
2021/03/09 00:30:51;;;;;;;0.40;0.40;;;;;;;-2.03;74.77;101698.19;5075539;28;20946;-65
2021/03/09 00:33:17;;;;;;;0.50;0.50;;;;;;;-2.10;74.92;101703.44;5075853;28;20445;-65
2021/03/09 00:35:43;;;;;;;0.40;0.40;;;;;;;-2.06;75.26;101702.03;5075784;28;20969;-65
2021/03/09 00:38:09;;;;;;;0.40;0.30;;;;;;;-2.05;75.92;101700.19;5075486;28;20806;-65
2021/03/09 00:40:35;;;;;;;0.40;0.30;;;;;;;-2.05;76.35;101708.16;5075303;28;20436;-63
2021/03/09 00:43:01;;;;;;;0.40;0.30;;;;;;;-2.13;77.27;101702.97;5075592;28;20498;-64
2021/03/09 00:45:27;;;;;;;0.40;0.30;;;;;;;-2.05;77.38;101702.84;5075698;28;20950;-64
2021/03/09 00:47:53;;;;;;;0.40;0.30;;;;;;;-2.08;77.51;101703.22;5075672;28;20441;-67
2021/03/09 00:50:19;;;;;;;0.67;0.67;;;;;;;-1.98;77.79;101702.94;5074569;28;20492;-67
2021/03/09 00:52:45;;;;;;;0.40;0.30;;;;;;;-1.90;77.82;101694.84;5075483;28;20462;-67
2021/03/09 00:55:12;;;;;;;0.40;0.30;;;;;;;-1.99;78.30;101701.25;5075475;28;20951;-68
2021/03/09 00:57:38;;;;;;;0.60;0.60;;;;;;;-1.88;76.53;101695.47;5075469;28;20444;-66
2021/03/09 01:00:06;;;;;;;0.40;0.30;;;;;;;-1.72;75.85;101681.91;5075208;28;20472;-67
2021/03/09 01:02:33;;;;;;;0.40;0.30;;;;;;;-1.74;77.05;101688.41;5075106;28;20942;-67
2021/03/09 01:04:59;;;;;;;0.40;0.30;;;;;;;-1.91;77.36;101687.88;5075111;28;20485;-67
2021/03/09 01:07:25;;;;;;;0.40;0.30;;;;;;;-1.94;76.70;101678.47;5075280;28;20467;-67
2021/03/09 01:09:51;;;;;;;0.40;0.30;;;;;;;-2.07;76.47;101686.31;5075167;28;20461;-66
2021/03/09 01:12:16;;;;;;;1.97;0.73;;;;;;;-2.09;76.15;101680.34;5075083;28;20584;-67
2021/03/09 01:14:42;;;;;;;0.40;0.30;;;;;;;-2.09;76.35;101677.72;5074737;28;20465;-67
2021/03/09 01:17:08;;;;;;;2.10;0.97;;;;;;;-2.07;76.34;101673.88;5074979;28;20433;-67
2021/03/09 01:19:35;;;;;;;0.40;0.30;;;;;;;-2.05;76.26;101676.31;5074842;28;20461;-67
2021/03/09 01:22:01;;;;;;;0.40;0.30;;;;;;;-2.13;76.51;101673.78;5075124;28;20446;-66
2021/03/09 01:24:27;;;;;;;0.40;0.30;;;;;;;-2.18;76.80;101670.88;5074857;28;20226;-68
2021/03/09 01:26:53;;;;;;;0.50;0.40;;;;;;;-2.17;76.39;101664.56;5074722;28;20448;-67
2021/03/09 01:29:19;;;;;;;0.40;0.40;;;;;;;-2.08;76.29;101663.41;5074767;28;20464;-67
2021/03/09 01:31:45;;;;;;;0.40;0.30;;;;;;;-2.14;76.21;101653.56;5074717;28;20510;-67
2021/03/09 01:34:11;;;;;;;0.40;0.30;;;;;;;-2.14;76.68;101654.41;5074639;28;20934;-68
2021/03/09 01:36:38;;;;;;;0.40;0.30;;;;;;;-2.13;76.39;101649.91;5074588;28;20445;-66
2021/03/09 01:39:04;;;;;;;0.40;0.30;;;;;;;-2.21;76.42;101640.25;5074355;28;20534;-68
2021/03/09 01:41:30;;;;;;;0.40;0.30;;;;;;;-2.24;76.66;101650.44;5074111;28;20961;-68
2021/03/09 01:43:56;;;;;;;0.80;0.80;;;;;;;-2.10;76.25;101637.06;5074324;28;20489;-67
2021/03/09 01:46:22;;;;;;;0.40;0.30;;;;;;;-2.18;76.42;101634.56;5074075;28;20445;-68
2021/03/09 01:48:48;;;;;;;0.40;0.30;;;;;;;-2.11;75.89;101640.75;5074444;28;20468;-67
2021/03/09 01:51:16;;;;;;;2.30;1.13;;;;;;;-2.15;76.40;101628.06;5074424;28;20453;-67
2021/03/09 01:53:43;;;;;;;0.40;0.30;;;;;;;-2.09;76.14;101628.09;5074333;28;20433;-67
2021/03/09 01:56:10;;;;;;;3.50;0.90;;;;;;;-2.14;76.24;101627.03;5074688;28;20440;-67
2021/03/09 01:58:40;;;;;;;0.40;0.30;;;;;;;-2.17;76.66;101620.28;5074198;28;20997;-67
2021/03/09 02:01:06;;;;;;;0.40;0.30;;;;;;;-2.09;77.52;101621.97;5074417;28;20443;-67
2021/03/09 02:03:32;;;;;;;0.40;0.30;;;;;;;-1.97;77.93;101631.06;5074149;28;20537;-67
2021/03/09 02:05:58;;;;;;;0.40;0.30;;;;;;;-1.93;77.97;101628.84;5073986;28;20938;-67
2021/03/09 02:08:24;;;;;;;1.57;0.73;;;;;;;-2.01;77.71;101629.81;5074014;28;20458;-66
2021/03/09 02:10:51;;;;;;;0.50;0.47;;;;;;;-2.08;76.76;101626.25;5074330;28;20452;-67
2021/03/09 02:13:36;;;;;;;0.40;0.30;;;;;;;-2.05;76.30;101629.34;5074140;28;20445;-67
2021/03/09 02:16:10;;;;;;;0.40;0.30;;;;;;;-2.20;77.36;101622.50;5073650;28;20420;-67
2021/03/09 02:18:44;;;;;;;0.40;0.30;;;;;;;-2.23;77.39;101622.88;5073855;28;20464;-67
2021/03/09 02:21:40;;;;;;;0.40;0.30;;;;;;;-2.21;77.32;101620.84;5073782;28;20434;-67
2021/03/09 02:24:29;;;;;;;0.40;0.30;;;;;;;-2.16;76.66;101615.81;5070839;28;20553;-67
2021/03/09 02:27:35;;;;;;;0.50;0.40;;;;;;;-2.20;76.27;101615.34;5073794;28;20436;-68
2021/03/09 02:30:08;;;;;;;0.63;0.63;;;;;;;-2.21;76.49;101607.56;5073698;28;20519;-67
2021/03/09 02:32:39;;;;;;;0.60;0.60;;;;;;;-2.17;76.76;101615.00;5073658;28;20494;-68
2021/03/09 02:35:09;;;;;;;0.40;0.30;;;;;;;-2.14;75.80;101608.47;5073592;28;20417;-64
2021/03/09 02:37:38;;;;;;;0.40;0.30;;;;;;;-2.14;76.27;101605.81;5073436;28;20448;-65
2021/03/09 02:40:06;;;;;;;0.40;0.30;;;;;;;-2.03;76.35;101608.78;5073115;28;21028;-65
2021/03/09 02:42:36;;;;;;;0.40;0.30;;;;;;;-2.03;77.19;101610.59;5073595;28;20207;-67
2021/03/09 02:45:02;;;;;;;0.40;0.30;;;;;;;-2.06;77.74;101605.66;5073478;28;20481;-67
2021/03/09 02:47:31;;;;;;;0.40;0.30;;;;;;;-1.99;77.67;101608.34;5073469;28;20207;-68
2021/03/09 02:49:59;;;;;;;1.07;0.97;;;;;;;-1.97;78.01;101612.47;5073242;28;20457;-67
2021/03/09 02:52:28;;;;;;;0.40;0.30;;;;;;;-1.88;77.78;101603.34;5073332;28;20441;-67
2021/03/09 02:54:55;;;;;;;0.40;0.30;;;;;;;-1.92;77.67;101604.75;5073157;28;20203;-67
2021/03/09 02:57:23;;;;;;;0.40;0.30;;;;;;;-1.92;78.07;101595.97;5073378;28;20440;-67
2021/03/09 02:59:50;;;;;;;0.40;0.30;;;;;;;-1.99;78.75;101600.41;5073279;28;20457;-67
2021/03/09 03:02:18;;;;;;;2.55;1.35;;;;;;;-2.03;79.19;101600.00;5073258;28;20457;-67
2021/03/09 03:04:48;;;;;;;0.40;0.30;;;;;;;-2.01;79.67;101597.13;5073128;28;20230;-68
2021/03/09 03:07:15;;;;;;;0.40;0.30;;;;;;;-1.90;79.40;101600.09;5073306;28;20462;-67
2021/03/09 03:09:43;;;;;;;0.40;0.30;;;;;;;-1.98;78.76;101600.22;5073104;28;20476;-67
2021/03/09 03:12:12;;;;;;;0.40;0.30;;;;;;;-2.04;78.19;101599.16;5073754;28;20445;-67
2021/03/09 03:14:41;;;;;;;0.40;0.30;;;;;;;-2.09;77.63;101596.25;5079555;28;20817;-67
2021/03/09 03:17:08;;;;;;;0.60;0.57;;;;;;;-2.07;76.93;101590.78;5079900;28;20441;-66
2021/03/09 03:19:35;;;;;;;0.40;0.30;;;;;;;-2.12;76.64;101590.53;5079299;28;20472;-67
2021/03/09 03:22:03;;;;;;;0.63;0.43;;;;;;;-2.13;77.57;101599.47;5079622;28;20441;-67
2021/03/09 03:24:30;;;;;;;0.40;0.30;;;;;;;-2.10;76.99;101597.25;5079262;28;20575;-66
2021/03/09 03:26:58;;;;;;;0.40;0.30;;;;;;;-2.12;76.76;101590.53;5079636;28;20448;-68
2021/03/09 03:29:24;;;;;;;0.40;0.30;;;;;;;-2.13;76.79;101591.53;5079629;28;20223;-68
2021/03/09 03:31:50;;;;;;;1.10;1.00;;;;;;;-2.14;76.31;101584.56;5079761;28;20842;-68
2021/03/09 03:34:17;;;;;;;0.40;0.30;;;;;;;-2.20;77.40;101582.69;5079603;28;20441;-68
2021/03/09 03:36:43;;;;;;;0.40;0.30;;;;;;;-2.24;77.32;101584.91;5079556;28;20441;-69
2021/03/09 03:39:10;;;;;;;0.40;0.40;;;;;;;-2.30;77.06;101591.81;5094546;22;20210;-67
2021/03/09 03:41:36;;;;;;;0.40;0.30;;;;;;;-2.21;76.49;101583.69;5079452;28;20417;-67
2021/03/09 03:44:02;;;;;;;1.23;1.13;;;;;;;-2.26;76.35;101583.44;5079260;28;20226;-68
2021/03/09 03:46:28;;;;;;;0.40;0.30;;;;;;;-2.18;75.90;101583.31;5078882;28;20945;-68
2021/03/09 03:48:54;;;;;;;0.50;0.43;;;;;;;-2.23;75.94;101577.78;5079222;28;20210;-67
2021/03/09 03:51:27;;;;;;;0.40;0.30;;;;;;;-2.19;76.14;101581.69;5079325;28;20792;-67
2021/03/09 03:53:59;;;;;;;2.10;1.53;;;;;;;-2.14;75.93;101581.91;5079217;28;20535;-67
2021/03/09 03:56:35;;;;;;;0.40;0.30;;;;;;;-2.20;75.86;101572.91;5079362;28;20413;-68
2021/03/09 03:59:07;;;;;;;0.40;0.30;;;;;;;-2.17;74.53;101575.19;5079149;28;20433;-68
2021/03/09 04:01:36;;;;;;;0.40;0.30;;;;;;;-2.09;73.99;101569.72;5079259;28;20424;-67
2021/03/09 04:04:08;;;;;;;0.40;0.30;;;;;;;-2.01;73.07;101573.25;5079173;28;20538;-68
2021/03/09 04:06:36;;;;;;;0.40;0.30;;;;;;;-2.03;73.09;101576.91;5079204;28;20433;-67
2021/03/09 04:09:04;;;;;;;0.40;0.30;;;;;;;-2.04;73.29;101577.94;5079003;28;20203;-68
2021/03/09 04:11:32;;;;;;;0.50;0.50;;;;;;;-2.04;75.98;101556.72;5079053;28;20452;-68
2021/03/09 04:13:59;;;;;;;0.40;0.30;;;;;;;-1.92;75.87;101566.78;5079089;28;20437;-68
2021/03/09 04:16:26;;;;;;;0.40;0.30;;;;;;;-1.78;75.55;101563.19;5078771;28;20467;-69
2021/03/09 04:18:53;;;;;;;0.77;0.50;;;;;;;-1.79;75.68;101565.03;5078919;28;20445;-69
2021/03/09 04:21:20;;;;;;;0.40;0.30;;;;;;;-1.84;76.31;101567.44;5078709;28;20436;-68
2021/03/09 04:23:47;;;;;;;0.40;0.30;;;;;;;-1.75;76.39;101560.13;5077808;28;20485;-68
2021/03/09 04:26:13;;;;;;;0.40;0.30;;;;;;;-1.54;75.70;101560.06;5075003;28;20440;-66
2021/03/09 04:28:40;;;;;;;0.40;0.30;;;;;;;-1.66;77.33;101563.47;5075403;28;20938;-68
2021/03/09 04:31:07;;;;;;;0.40;0.30;;;;;;;-1.59;77.17;101559.00;5075611;28;20227;-69
2021/03/09 04:33:33;;;;;;;0.40;0.40;;;;;;;-1.58;76.91;101550.84;5075612;28;20445;-68
2021/03/09 04:36:01;;;;;;;0.40;0.30;;;;;;;-1.51;76.25;101553.50;5075647;28;20448;-69
2021/03/09 04:38:27;;;;;;;0.40;0.30;;;;;;;-1.50;76.35;101557.03;5075540;28;20444;-68
2021/03/09 04:40:54;;;;;;;0.40;0.30;;;;;;;-1.43;75.18;101553.34;5075025;28;20484;-68
2021/03/09 04:43:20;;;;;;;0.40;0.30;;;;;;;-1.47;73.69;101553.94;5075566;28;20446;-68
2021/03/09 04:45:47;;;;;;;0.40;0.30;;;;;;;-1.48;72.64;101553.13;5075345;28;20477;-69
2021/03/09 04:48:13;;;;;;;0.40;0.30;;;;;;;-1.52;72.36;101554.53;5075421;28;20493;-68
2021/03/09 04:50:39;;;;;;;1.17;1.07;;;;;;;-1.42;71.18;101552.31;5075340;28;20836;-69
2021/03/09 04:53:05;;;;;;;0.40;0.30;;;;;;;-1.41;71.56;101553.19;5075301;28;20441;-68
2021/03/09 04:55:32;;;;;;;0.40;0.30;;;;;;;-1.54;71.40;101543.31;5075280;28;20434;-69
2021/03/09 04:57:58;;;;;;;0.40;0.30;;;;;;;-1.46;71.18;101550.25;5075241;28;20441;-69
2021/03/09 05:00:26;;;;;;;0.50;0.50;;;;;;;-1.47;71.07;101545.97;5075150;28;20515;-68
2021/03/09 05:02:53;;;;;;;0.77;0.77;;;;;;;-1.49;70.63;101548.84;5075206;28;20445;-68
2021/03/09 05:05:21;;;;;;;0.40;0.30;;;;;;;-1.49;71.84;101548.84;5075077;28;20824;-68
2021/03/09 05:07:47;;;;;;;0.60;0.60;;;;;;;-1.51;73.79;101545.53;5075106;28;20924;-68
2021/03/09 05:10:14;;;;;;;0.60;0.60;;;;;;;-1.48;74.20;101547.81;5074511;28;20828;-68
2021/03/09 05:12:42;;;;;;;0.40;0.30;;;;;;;-1.40;72.74;101542.34;5074852;28;20494;-68
2021/03/09 05:15:09;;;;;;;0.40;0.30;;;;;;;-1.55;72.18;101539.00;5074832;28;20491;-68
2021/03/09 05:17:35;;;;;;;0.40;0.30;;;;;;;-1.58;72.91;101539.41;5074408;28;20963;-69
2021/03/09 05:20:03;;;;;;;2.20;1.23;;;;;;;-1.53;72.12;101544.94;5074621;28;20292;-68
2021/03/09 05:22:29;;;;;;;0.40;0.30;;;;;;;-1.62;72.00;101538.16;5074359;28;20438;-68
2021/03/09 05:24:54;;;;;;;0.40;0.30;;;;;;;-1.63;72.69;101541.84;5074534;28;20484;-68
2021/03/09 05:27:20;;;;;;;0.40;0.40;;;;;;;-1.67;73.54;101544.06;5074232;28;20449;-68
2021/03/09 05:29:46;;;;;;;0.40;0.30;;;;;;;-1.68;74.17;101546.88;5074467;28;20471;-70
2021/03/09 05:32:12;;;;;;;0.40;0.40;;;;;;;-1.63;72.69;101547.97;5074221;28;20441;-68
2021/03/09 05:34:39;;;;;;;0.40;0.30;;;;;;;-1.58;72.28;101540.22;5074372;28;20811;-65
2021/03/09 05:37:08;;;;;;;0.90;0.90;;;;;;;-1.57;72.75;101547.16;5073733;28;20942;-67
2021/03/09 05:39:34;;;;;;;1.43;0.67;;;;;;;-1.50;72.07;101552.53;5073987;28;20468;-68
2021/03/09 05:42:00;;;;;;;0.40;0.30;;;;;;;-1.45;72.09;101550.09;5074259;28;20812;-68
2021/03/09 05:44:26;;;;;;;0.40;0.40;;;;;;;-1.59;72.68;101538.59;5074298;28;20568;-66
2021/03/09 05:46:52;;;;;;;0.40;0.30;;;;;;;-1.59;72.86;101551.88;5074185;28;20446;-67
2021/03/09 05:49:18;;;;;;;0.70;0.70;;;;;;;-1.52;72.42;101538.59;5074113;28;20458;-70
2021/03/09 05:51:44;;;;;;;0.40;0.30;;;;;;;-1.55;71.50;101541.63;5073784;28;20480;-72
2021/03/09 05:54:11;;;;;;;0.40;0.40;;;;;;;-1.44;70.88;101535.78;5073735;28;20822;-68
2021/03/09 05:56:37;;;;;;;0.40;0.40;;;;;;;-1.44;70.32;101541.09;5073671;28;20961;-68
2021/03/09 05:59:04;;;;;;;0.40;0.30;;;;;;;-1.44;70.24;101540.28;5073833;28;20446;-69
2021/03/09 06:01:31;;;;;;;0.80;0.77;;;;;;;-1.40;70.41;101539.69;5073893;28;20442;-68
2021/03/09 06:03:58;;;;;;;0.40;0.30;;;;;;;-1.38;71.31;101534.16;5073601;28;20990;-69
2021/03/09 06:06:25;;;;;;;1.37;1.27;;;;;;;-1.38;72.81;101537.63;5075707;28;20437;-68
2021/03/09 06:08:51;;;;;;;0.40;0.40;;;;;;;-1.34;73.66;101532.75;5075254;28;20968;-69
2021/03/09 06:11:19;;;;;;;1.50;1.17;;;;;;;-1.21;73.54;101534.63;5073903;28;20433;-68
2021/03/09 06:13:46;;;;;;;0.40;0.30;;;;;;;-1.22;73.89;101544.44;5073778;28;20608;-68
2021/03/09 06:16:13;;;;;;;0.40;0.30;;;;;;;-1.05;73.39;101539.59;5073725;28;20441;-68
2021/03/09 06:18:51;;;;;;;6.07;0.87;;;;;;;-1.03;73.45;101546.34;5073648;28;20438;-68
2021/03/09 06:21:17;;;;;;;0.40;0.30;;;;;;;-0.94;73.07;101546.16;5073655;28;20432;-68
2021/03/09 06:23:44;;;;;;;0.40;0.40;;;;;;;-0.80;72.92;101538.03;5073479;28;20437;-70
2021/03/09 06:26:34;;;;;;;0.40;0.40;;;;;;;-0.90;73.31;101540.25;5073291;28;20946;-68
2021/03/09 06:29:09;;;;;;;0.90;0.80;;;;;;;-0.82;72.57;101540.06;5073384;28;20453;-68
2021/03/09 06:31:36;;;;;;;0.50;0.47;;;;;;;-0.64;72.96;101542.13;5073552;28;20445;-67
2021/03/09 06:34:26;;;;;;;0.40;0.30;;;;;;;-0.57;70.97;101540.31;5073229;28;20935;-68
2021/03/09 06:37:10;;;;;;;0.40;0.30;;;;;;;-0.54;69.83;101553.19;5062842;28;20536;-66
2021/03/09 06:39:54;;;;;;;1.27;1.13;;;;;;;-0.56;69.21;101541.13;5073174;28;20485;-67
2021/03/09 06:42:23;;;;;;;0.40;0.30;;;;;;;-0.46;68.87;101548.69;5073458;28;20906;-67
2021/03/09 06:44:51;;;;;;;0.40;0.30;;;;;;;-0.36;67.72;101549.09;5073327;28;20477;-67
2021/03/09 06:47:18;;;;;;;0.40;0.40;;;;;;;-0.24;67.16;101552.78;5072570;28;20429;-67
2021/03/09 06:49:52;;;;;;;0.40;0.30;;;;;;;-0.16;67.16;101549.91;5073263;28;20457;-67
2021/03/09 06:52:20;;;;;;;0.50;0.43;;;;;;;-0.06;66.40;101552.16;5073013;28;20447;-67
2021/03/09 06:54:48;;;;;;;0.40;0.30;;;;;;;0.09;66.21;101551.94;5072677;28;20539;-67
2021/03/09 06:57:14;;;;;;;0.67;0.67;;;;;;;0.17;65.83;101546.38;5073217;28;20441;-68
2021/03/09 06:59:44;;;;;;;0.40;0.40;;;;;;;0.24;65.74;101557.84;5073199;28;20465;-68
2021/03/09 07:02:12;;;;;;;0.40;0.40;;;;;;;0.38;64.83;101550.63;5073216;28;20471;-68
2021/03/09 07:04:40;;;;;;;0.40;0.40;;;;;;;0.43;64.61;101553.50;5073237;28;20519;-67
2021/03/09 07:07:07;;;;;;;0.80;0.80;;;;;;;0.56;64.34;101553.44;5073185;28;20453;-67
2021/03/09 07:09:34;;;;;;;0.40;0.30;;;;;;;0.62;63.83;101557.13;5072780;28;20971;-67
2021/03/09 07:12:02;;;;;;;0.50;0.50;;;;;;;0.64;63.70;101555.88;5072785;28;20449;-68
2021/03/09 07:14:30;;;;;;;0.40;0.30;;;;;;;0.72;63.49;101558.31;5073087;28;20463;-68
2021/03/09 07:16:59;;;;;;;0.40;0.30;;;;;;;0.80;63.46;101564.41;5073121;28;20455;-68
2021/03/09 07:19:27;;;;;;;0.40;0.30;;;;;;;0.84;63.33;101554.97;5073062;28;20518;-66
2021/03/09 07:21:53;;;;;;;0.50;0.43;;;;;;;0.93;62.74;101567.03;5073072;28;20445;-68
2021/03/09 07:24:21;;;;;;;0.40;0.40;;;;;;;0.96;62.72;101567.44;5072942;28;20488;-67
2021/03/09 07:26:51;;;;;;;0.40;0.30;;;;;;;1.01;63.02;101561.44;5072748;28;20973;-67
2021/03/09 07:29:22;;;;;;;0.50;0.50;;;;;;;1.08;62.93;101554.25;5072916;28;20460;-67
2021/03/09 07:31:50;;;;;;;6.10;1.33;;;;;;;1.16;64.12;101563.84;5073017;28;20470;-67
2021/03/09 07:34:18;;;;;;;2.43;1.37;;;;;;;1.21;63.83;101566.69;5072894;28;20528;-68
2021/03/09 07:36:44;;;;;;;0.67;0.57;;;;;;;1.27;62.87;101552.47;5072563;28;20942;-67
2021/03/09 07:39:10;;;;;;;1.03;0.40;;;;;;;1.29;62.77;101555.78;5072566;28;20496;-67
2021/03/09 07:41:37;;;;;;;4.43;0.80;;;;;;;1.38;62.61;101559.00;5072778;28;20479;-68
2021/03/09 07:44:03;;;;;;;1.50;0.87;;;;;;;1.49;61.59;101563.63;5072483;28;20452;-67
2021/03/09 07:46:30;;;;;;;0.40;0.40;;;;;;;1.57;61.67;101559.88;5072912;28;20437;-67
2021/03/09 07:48:57;;;;;;;1.07;0.83;;;;;;;1.59;61.17;101560.47;5072407;28;20903;-68
2021/03/09 07:51:24;;;;;;;0.50;0.40;;;;;;;1.74;60.42;101564.47;5072491;28;20472;-66
2021/03/09 07:54:08;;;;;;;0.70;0.50;;;;;;;1.90;60.44;101559.59;5072260;28;20472;-66
2021/03/09 07:56:34;;;;;;;0.50;0.47;;;;;;;2.03;59.97;101559.47;5072665;28;20487;-67
2021/03/09 07:59:07;;;;;;;0.40;0.30;;;;;;;2.15;59.61;101557.72;5073653;28;20449;-67
2021/03/09 08:01:48;;;;;;;0.57;0.57;;;;;;;2.28;58.98;101554.91;5076431;28;20531;-67
2021/03/09 08:04:14;;;;;;;0.50;0.40;;;;;;;2.42;57.96;101546.75;5076413;28;20580;-68
2021/03/09 08:06:46;;;;;;;1.10;1.07;;;;;;;2.53;58.40;101549.50;5076359;28;20448;-67
2021/03/09 08:09:33;;;;;;;1.00;0.90;;;;;;;2.64;57.84;101547.09;5076310;28;20514;-67
2021/03/09 08:12:00;;;;;;;0.40;0.33;;;;;;;2.75;57.54;101557.88;5076303;28;20437;-68
2021/03/09 08:14:26;;;;;;;0.40;0.30;;;;;;;2.84;57.37;101549.56;5076239;28;20445;-67
2021/03/09 08:16:53;;;;;;;15.60;1.37;;;;;;;2.97;56.78;101552.06;5076224;28;20499;-67
2021/03/09 08:19:41;;;;;;;0.50;0.40;;;;;;;3.10;55.80;101534.97;5075741;28;20920;-67
2021/03/09 08:22:09;;;;;;;0.97;0.60;;;;;;;3.20;55.46;101540.63;5075835;28;20907;-68
2021/03/09 08:24:57;;;;;;;0.53;0.53;;;;;;;3.31;56.08;101539.00;5075979;28;20485;-68
2021/03/09 08:27:36;;;;;;;0.50;0.40;;;;;;;3.25;54.74;101536.19;5075923;28;20513;-68
2021/03/09 08:30:35;;;;;;;0.40;0.40;;;;;;;3.23;53.86;101526.75;5075675;28;20958;-68
2021/03/09 08:33:34;;;;;;;0.70;0.70;;;;;;;3.26;53.89;101532.47;5076031;28;20540;-68
2021/03/09 08:36:21;;;;;;;0.40;0.30;;;;;;;3.32;54.37;101529.91;5076005;28;20462;-68
2021/03/09 08:39:16;;;;;;;0.60;0.50;;;;;;;3.43;54.79;101538.00;5075822;28;20448;-68
2021/03/09 08:42:01;;;;;;;5.20;1.07;;;;;;;3.56;53.55;101531.59;5075796;28;20468;-68
2021/03/09 08:44:28;;;;;;;1.20;1.20;;;;;;;3.68;53.76;101535.13;5075595;28;20572;-66
2021/03/09 08:46:57;;;;;;;0.40;0.30;;;;;;;3.74;53.70;101534.19;5075668;28;20595;-65
2021/03/09 08:49:51;;;;;;;0.70;0.67;;;;;;;3.82;53.14;101534.91;5075782;28;20465;-65
2021/03/09 08:52:41;;;;;;;3.17;1.23;;;;;;;3.90;53.34;101526.53;5075286;28;20899;-65
2021/03/09 08:55:08;;;;;;;0.77;0.77;;;;;;;3.95;53.21;101523.94;5075453;28;20444;-66
2021/03/09 08:57:34;;;;;;;0.40;0.30;;;;;;;3.92;52.96;101521.72;5075339;28;20443;-66
2021/03/09 09:00:02;;;;;;;1.90;0.90;;;;;;;3.96;52.41;101521.03;5075362;28;20518;-66
2021/03/09 09:02:29;;;;;;;0.60;0.50;;;;;;;3.83;51.85;101520.44;5074994;28;20495;-68
2021/03/09 09:04:57;;;;;;;0.40;0.30;;;;;;;3.86;52.46;101523.47;5075218;28;20508;-67
2021/03/09 09:07:26;;;;;;;0.80;0.40;;;;;;;3.93;52.30;101518.81;5074885;28;20437;-68
2021/03/09 09:09:54;;;;;;;29.47;1.70;;;;;;;3.96;51.95;101509.50;5074964;28;20458;-65
2021/03/09 09:12:27;;;;;;;0.60;0.60;;;;;;;4.12;51.24;101508.78;5074537;28;20445;-66
2021/03/09 09:15:05;;;;;;;0.40;0.40;;;;;;;4.23;51.08;101510.63;5075195;28;20475;-65
2021/03/09 09:17:32;;;;;;;0.40;0.30;;;;;;;4.36;51.10;101514.09;5074724;28;20875;-67
2021/03/09 09:20:00;;;;;;;3.70;1.03;;;;;;;4.44;50.00;101511.06;5074871;28;20472;-68
2021/03/09 09:22:27;;;;;;;0.90;0.90;;;;;;;4.52;49.84;101514.19;5074836;28;20445;-68
2021/03/09 09:24:57;;;;;;;0.50;0.33;;;;;;;4.49;50.18;101506.59;5074779;28;20481;-66
2021/03/09 09:27:23;;;;;;;0.53;0.53;;;;;;;4.52;49.06;101502.66;5074769;28;20434;-67
2021/03/09 09:29:55;;;;;;;0.80;0.80;;;;;;;4.57;48.74;101494.69;5074763;28;20468;-67
2021/03/09 09:32:21;;;;;;;0.50;0.50;;;;;;;4.61;48.33;101497.72;5074715;28;20444;-67
2021/03/09 09:34:47;;;;;;;1.30;1.20;;;;;;;4.65;48.86;101491.63;5074776;28;20444;-67
2021/03/09 09:37:15;;;;;;;0.70;0.70;;;;;;;4.70;48.44;101496.28;5074679;28;20437;-68
2021/03/09 09:39:42;;;;;;;0.47;0.47;;;;;;;4.72;48.89;101492.28;5075775;28;20512;-69
2021/03/09 09:42:15;;;;;;;0.43;0.43;;;;;;;4.79;49.34;101498.34;5074492;28;20449;-67
2021/03/09 09:44:41;;;;;;;1.03;1.00;;;;;;;4.86;48.39;101498.19;5074317;28;20534;-66
2021/03/09 09:47:10;;;;;;;1.77;0.93;;;;;;;4.88;48.13;101498.78;5074020;28;20445;-66
2021/03/09 09:49:37;;;;;;;0.40;0.40;;;;;;;4.85;47.90;101495.75;5074177;28;20534;-67
2021/03/09 09:52:10;;;;;;;6.43;1.13;;;;;;;4.80;47.92;101499.97;5074298;28;20476;-66
2021/03/09 09:54:36;;;;;;;0.40;0.30;;;;;;;4.79;48.18;101494.84;5073893;28;20429;-67
2021/03/09 09:57:07;;;;;;;0.40;0.40;;;;;;;4.81;47.88;101498.09;5074256;28;20540;-67
2021/03/09 09:59:33;;;;;;;0.50;0.40;;;;;;;4.91;46.73;101486.72;5073856;28;20875;-67
2021/03/09 10:01:59;;;;;;;2.00;1.13;;;;;;;5.01;47.12;101493.13;5074162;28;20579;-66
2021/03/09 10:04:34;;;;;;;0.40;0.30;;;;;;;5.14;46.24;101494.69;5074032;28;20534;-67
2021/03/09 10:07:00;;;;;;;0.40;0.30;;;;;;;5.22;46.96;101496.13;5074064;28;20425;-66
2021/03/09 10:09:28;;;;;;;0.40;0.30;;;;;;;5.30;44.03;101487.69;5073662;28;20469;-67
2021/03/09 10:11:55;;;;;;;2.93;0.77;;;;;;;5.41;44.84;101496.75;5074098;28;20445;-68
2021/03/09 10:14:23;;;;;;;1.17;0.83;;;;;;;5.43;44.97;101489.25;5073544;28;20939;-67
2021/03/09 10:16:49;;;;;;;0.50;0.30;;;;;;;5.32;45.02;101482.91;5074075;28;20445;-68
2021/03/09 10:19:18;;;;;;;0.60;0.60;;;;;;;5.47;45.18;101493.06;5073864;28;20465;-68
2021/03/09 10:21:45;;;;;;;0.53;0.53;;;;;;;5.71;44.99;101483.78;5073508;28;20472;-67
2021/03/09 10:24:19;;;;;;;0.70;0.43;;;;;;;5.75;43.80;101484.88;5073259;28;20469;-67
2021/03/09 10:26:47;;;;;;;1.90;1.13;;;;;;;5.71;42.69;101478.41;5073856;28;20431;-68
2021/03/09 10:29:14;;;;;;;0.73;0.70;;;;;;;5.75;43.37;101479.50;5073617;28;20468;-67
2021/03/09 10:31:43;;;;;;;0.50;0.40;;;;;;;5.87;43.67;101476.75;5073687;28;20453;-68
2021/03/09 10:34:09;;;;;;;0.40;0.30;;;;;;;6.15;44.04;101480.34;5073383;28;20449;-67
2021/03/09 10:36:52;;;;;;;0.40;0.37;;;;;;;6.32;44.28;101479.25;5073395;28;20449;-68
2021/03/09 10:39:19;;;;;;;1.50;1.00;;;;;;;6.42;41.54;101477.75;5073348;28;20469;-68
2021/03/09 10:41:46;;;;;;;0.40;0.30;;;;;;;6.51;41.86;101487.03;5073472;28;20437;-67
2021/03/09 10:44:34;;;;;;;4.43;0.67;;;;;;;6.56;39.83;101479.81;5073215;28;20456;-67
2021/03/09 10:47:02;;;;;;;1.17;0.70;;;;;;;6.59;40.45;101473.09;5073316;28;20430;-67
2021/03/09 10:49:29;;;;;;;0.57;0.57;;;;;;;6.77;41.24;101474.63;5072955;28;20461;-68
2021/03/09 10:51:57;;;;;;;0.90;0.77;;;;;;;6.89;41.50;101482.56;5073083;28;20947;-73
2021/03/09 10:54:23;;;;;;;0.50;0.40;;;;;;;7.00;38.96;101476.22;5073230;28;20441;-71
2021/03/09 10:56:49;;;;;;;0.40;0.30;;;;;;;6.98;38.88;101478.34;5072365;28;20490;-68
2021/03/09 10:59:15;;;;;;;0.50;0.30;;;;;;;7.13;39.93;101474.97;5073231;28;20556;-68
2021/03/09 11:01:41;;;;;;;0.70;0.70;;;;;;;7.33;40.86;101472.47;5080077;28;20873;-70
2021/03/09 11:04:07;;;;;;;0.40;0.30;;;;;;;7.58;39.66;101466.47;5077506;28;20449;-69
2021/03/09 11:06:32;;;;;;;0.40;0.30;;;;;;;7.86;39.57;101469.88;5073444;28;20457;-68
2021/03/09 11:08:59;;;;;;;0.60;0.40;;;;;;;8.04;38.67;101472.94;5073212;28;20449;-69
2021/03/09 11:11:26;;;;;;;0.50;0.40;;;;;;;8.19;37.57;101472.22;5073147;28;20437;-69
2021/03/09 11:13:52;;;;;;;0.40;0.30;;;;;;;8.13;36.98;101475.16;5072989;28;20445;-68
2021/03/09 11:16:17;;;;;;;1.00;0.50;;;;;;;8.13;37.29;101472.44;5072725;28;20440;-67
2021/03/09 11:18:43;;;;;;;0.40;0.30;;;;;;;8.26;38.64;101474.66;5072993;28;20548;-68
2021/03/09 11:21:10;;;;;;;0.60;0.40;;;;;;;8.52;36.46;101472.91;5073123;28;20515;-69
2021/03/09 11:23:36;;;;;;;0.50;0.40;;;;;;;8.29;35.12;101472.25;5073210;28;20441;-68
2021/03/09 11:26:03;;;;;;;1.47;0.40;;;;;;;8.20;36.70;101465.75;5073101;28;20481;-68
2021/03/09 11:28:29;;;;;;;0.40;0.30;;;;;;;8.21;37.38;101469.25;5073198;28;20437;-68
2021/03/09 11:30:54;;;;;;;0.50;0.40;;;;;;;8.47;36.86;101460.19;5073182;28;20889;-68
2021/03/09 11:33:20;;;;;;;0.60;0.50;;;;;;;8.80;34.97;101458.13;5073042;28;20445;-69
2021/03/09 11:35:46;;;;;;;0.50;0.37;;;;;;;8.66;33.91;101452.41;5077125;28;20433;-68
2021/03/09 11:38:12;;;;;;;0.40;0.30;;;;;;;8.82;34.76;101456.78;5076686;28;20448;-68